sensor_id;sensor_type;location;lat;lon;timestamp;temperature;humidity
16901;DHT22;8567;52.540;6.434;2022-07-01T00:01:37;25.00;50.60
16901;DHT22;8567;52.540;6.434;2022-07-01T00:04:06;25.00;50.60
16901;DHT22;8567;52.540;6.434;2022-07-01T00:06:33;25.00;50.50
16901;DHT22;8567;52.540;6.434;2022-07-01T00:09:00;25.00;50.60
16901;DHT22;8567;52.540;6.434;2022-07-01T00:11:26;25.00;50.60
16901;DHT22;8567;52.540;6.434;2022-07-01T00:13:53;24.90;50.60
16901;DHT22;8567;52.540;6.434;2022-07-01T00:16:20;24.90;50.60
16901;DHT22;8567;52.540;6.434;2022-07-01T00:18:48;24.90;50.60
16901;DHT22;8567;52.540;6.434;2022-07-01T00:21:15;24.90;50.60
16901;DHT22;8567;52.540;6.434;2022-07-01T00:23:41;24.80;50.70
16901;DHT22;8567;52.540;6.434;2022-07-01T00:26:08;24.80;50.80
16901;DHT22;8567;52.540;6.434;2022-07-01T00:28:35;24.80;50.80
16901;DHT22;8567;52.540;6.434;2022-07-01T00:31:02;24.80;50.90
16901;DHT22;8567;52.540;6.434;2022-07-01T00:33:29;24.80;50.80
16901;DHT22;8567;52.540;6.434;2022-07-01T00:35:58;24.80;50.90
16901;DHT22;8567;52.540;6.434;2022-07-01T00:38:25;24.80;50.90
16901;DHT22;8567;52.540;6.434;2022-07-01T00:40:52;24.80;50.90
16901;DHT22;8567;52.540;6.434;2022-07-01T00:43:20;24.80;50.80
16901;DHT22;8567;52.540;6.434;2022-07-01T00:45:49;24.80;50.80
16901;DHT22;8567;52.540;6.434;2022-07-01T00:48:16;24.80;50.70
16901;DHT22;8567;52.540;6.434;2022-07-01T00:50:43;24.80;50.60
16901;DHT22;8567;52.540;6.434;2022-07-01T00:53:12;24.80;50.40
16901;DHT22;8567;52.540;6.434;2022-07-01T00:55:39;24.80;50.50
16901;DHT22;8567;52.540;6.434;2022-07-01T00:58:06;24.80;50.40
16901;DHT22;8567;52.540;6.434;2022-07-01T01:00:34;24.80;50.50
16901;DHT22;8567;52.540;6.434;2022-07-01T01:03:02;24.70;50.50
16901;DHT22;8567;52.540;6.434;2022-07-01T01:05:29;24.70;50.60
16901;DHT22;8567;52.540;6.434;2022-07-01T01:07:55;24.70;50.60
16901;DHT22;8567;52.540;6.434;2022-07-01T01:10:25;24.70;50.60
16901;DHT22;8567;52.540;6.434;2022-07-01T01:12:53;24.70;50.50
16901;DHT22;8567;52.540;6.434;2022-07-01T01:15:21;24.70;50.60
16901;DHT22;8567;52.540;6.434;2022-07-01T01:17:48;24.70;50.60
16901;DHT22;8567;52.540;6.434;2022-07-01T01:20:16;24.60;50.60
16901;DHT22;8567;52.540;6.434;2022-07-01T01:22:45;24.50;50.70
16901;DHT22;8567;52.540;6.434;2022-07-01T01:25:12;24.50;50.80
16901;DHT22;8567;52.540;6.434;2022-07-01T01:27:39;24.60;50.70
16901;DHT22;8567;52.540;6.434;2022-07-01T01:30:08;24.50;50.70
16901;DHT22;8567;52.540;6.434;2022-07-01T01:32:35;24.50;50.70
16901;DHT22;8567;52.540;6.434;2022-07-01T01:35:03;24.60;50.70
16901;DHT22;8567;52.540;6.434;2022-07-01T01:37:30;24.50;50.70
16901;DHT22;8567;52.540;6.434;2022-07-01T01:39:58;24.50;50.80
16901;DHT22;8567;52.540;6.434;2022-07-01T01:42:25;24.50;50.90
16901;DHT22;8567;52.540;6.434;2022-07-01T01:44:51;24.50;50.80
16901;DHT22;8567;52.540;6.434;2022-07-01T01:47:20;24.50;50.70
16901;DHT22;8567;52.540;6.434;2022-07-01T01:49:46;24.50;50.70
16901;DHT22;8567;52.540;6.434;2022-07-01T01:52:13;24.50;50.70
16901;DHT22;8567;52.540;6.434;2022-07-01T01:54:40;24.50;50.60
16901;DHT22;8567;52.540;6.434;2022-07-01T01:57:08;24.40;50.70
16901;DHT22;8567;52.540;6.434;2022-07-01T01:59:35;24.50;50.70
16901;DHT22;8567;52.540;6.434;2022-07-01T02:02:02;24.50;50.60
16901;DHT22;8567;52.540;6.434;2022-07-01T02:04:29;24.40;50.60
16901;DHT22;8567;52.540;6.434;2022-07-01T02:06:56;24.50;50.50
16901;DHT22;8567;52.540;6.434;2022-07-01T02:09:23;24.40;50.60
16901;DHT22;8567;52.540;6.434;2022-07-01T02:11:50;24.40;50.50
16901;DHT22;8567;52.540;6.434;2022-07-01T02:14:19;24.30;50.50
16901;DHT22;8567;52.540;6.434;2022-07-01T02:16:46;24.30;50.50
16901;DHT22;8567;52.540;6.434;2022-07-01T02:19:12;24.30;50.40
16901;DHT22;8567;52.540;6.434;2022-07-01T02:21:39;24.30;50.40
16901;DHT22;8567;52.540;6.434;2022-07-01T02:24:07;24.30;50.40
16901;DHT22;8567;52.540;6.434;2022-07-01T02:26:34;24.30;50.30
16901;DHT22;8567;52.540;6.434;2022-07-01T02:29:02;24.30;50.20
16901;DHT22;8567;52.540;6.434;2022-07-01T02:31:30;24.30;50.30
16901;DHT22;8567;52.540;6.434;2022-07-01T02:33:57;24.20;50.20
16901;DHT22;8567;52.540;6.434;2022-07-01T02:36:23;24.30;50.20
16901;DHT22;8567;52.540;6.434;2022-07-01T02:38:51;24.30;50.10
16901;DHT22;8567;52.540;6.434;2022-07-01T02:41:17;24.30;50.20
16901;DHT22;8567;52.540;6.434;2022-07-01T02:43:44;24.20;50.10
16901;DHT22;8567;52.540;6.434;2022-07-01T02:46:11;24.20;50.00
16901;DHT22;8567;52.540;6.434;2022-07-01T02:48:39;24.20;50.10
16901;DHT22;8567;52.540;6.434;2022-07-01T02:51:08;24.20;50.00
16901;DHT22;8567;52.540;6.434;2022-07-01T02:53:35;24.20;49.90
16901;DHT22;8567;52.540;6.434;2022-07-01T02:56:02;24.20;50.00
16901;DHT22;8567;52.540;6.434;2022-07-01T02:58:29;24.20;49.90
16901;DHT22;8567;52.540;6.434;2022-07-01T03:00:56;24.30;49.80
16901;DHT22;8567;52.540;6.434;2022-07-01T03:03:23;24.20;49.80
16901;DHT22;8567;52.540;6.434;2022-07-01T03:05:51;24.20;49.90
16901;DHT22;8567;52.540;6.434;2022-07-01T03:08:17;24.10;50.00
16901;DHT22;8567;52.540;6.434;2022-07-01T03:10:44;24.10;49.90
16901;DHT22;8567;52.540;6.434;2022-07-01T03:13:11;24.10;49.90
16901;DHT22;8567;52.540;6.434;2022-07-01T03:15:37;24.10;50.00
16901;DHT22;8567;52.540;6.434;2022-07-01T03:18:04;24.10;50.00
16901;DHT22;8567;52.540;6.434;2022-07-01T03:20:31;24.00;50.00
16901;DHT22;8567;52.540;6.434;2022-07-01T03:22:59;24.00;50.20
16901;DHT22;8567;52.540;6.434;2022-07-01T03:25:26;24.00;50.10
16901;DHT22;8567;52.540;6.434;2022-07-01T03:27:53;24.00;50.00
16901;DHT22;8567;52.540;6.434;2022-07-01T03:30:20;24.00;50.00
16901;DHT22;8567;52.540;6.434;2022-07-01T03:32:47;24.00;50.10
16901;DHT22;8567;52.540;6.434;2022-07-01T03:35:14;24.00;50.10
16901;DHT22;8567;52.540;6.434;2022-07-01T03:37:59;24.00;50.10
16901;DHT22;8567;52.540;6.434;2022-07-01T03:40:26;24.00;50.20
16901;DHT22;8567;52.540;6.434;2022-07-01T03:42:53;24.00;50.20
16901;DHT22;8567;52.540;6.434;2022-07-01T03:45:20;24.00;50.10
16901;DHT22;8567;52.540;6.434;2022-07-01T03:47:47;24.00;50.10
16901;DHT22;8567;52.540;6.434;2022-07-01T03:50:14;24.00;49.90
16901;DHT22;8567;52.540;6.434;2022-07-01T03:52:41;24.10;49.90
16901;DHT22;8567;52.540;6.434;2022-07-01T03:55:10;24.10;49.90
16901;DHT22;8567;52.540;6.434;2022-07-01T03:57:36;24.00;49.90
16901;DHT22;8567;52.540;6.434;2022-07-01T04:00:04;24.00;49.90
16901;DHT22;8567;52.540;6.434;2022-07-01T04:02:31;24.00;50.00
16901;DHT22;8567;52.540;6.434;2022-07-01T04:04:58;23.90;50.10
16901;DHT22;8567;52.540;6.434;2022-07-01T04:07:25;23.90;50.20
16901;DHT22;8567;52.540;6.434;2022-07-01T04:09:52;23.90;50.10
16901;DHT22;8567;52.540;6.434;2022-07-01T04:12:20;23.80;50.30
16901;DHT22;8567;52.540;6.434;2022-07-01T04:14:47;23.80;50.20
16901;DHT22;8567;52.540;6.434;2022-07-01T04:17:14;23.80;50.30
16901;DHT22;8567;52.540;6.434;2022-07-01T04:19:41;23.80;50.40
16901;DHT22;8567;52.540;6.434;2022-07-01T04:22:08;23.80;50.40
16901;DHT22;8567;52.540;6.434;2022-07-01T04:24:52;23.80;50.40
16901;DHT22;8567;52.540;6.434;2022-07-01T04:27:20;23.80;50.20
16901;DHT22;8567;52.540;6.434;2022-07-01T04:29:47;23.80;50.30
16901;DHT22;8567;52.540;6.434;2022-07-01T04:32:14;23.70;50.50
16901;DHT22;8567;52.540;6.434;2022-07-01T04:34:41;23.70;50.50
16901;DHT22;8567;52.540;6.434;2022-07-01T04:37:08;23.70;50.50
16901;DHT22;8567;52.540;6.434;2022-07-01T04:39:34;23.70;50.50
16901;DHT22;8567;52.540;6.434;2022-07-01T04:42:01;23.70;50.40
16901;DHT22;8567;52.540;6.434;2022-07-01T04:44:31;23.70;50.40
16901;DHT22;8567;52.540;6.434;2022-07-01T04:46:59;23.70;50.40
16901;DHT22;8567;52.540;6.434;2022-07-01T04:49:26;23.70;50.20
16901;DHT22;8567;52.540;6.434;2022-07-01T04:51:54;23.80;50.10
16901;DHT22;8567;52.540;6.434;2022-07-01T04:54:21;23.70;50.20
16901;DHT22;8567;52.540;6.434;2022-07-01T04:56:48;23.80;50.10
16901;DHT22;8567;52.540;6.434;2022-07-01T04:59:15;23.80;50.00
16901;DHT22;8567;52.540;6.434;2022-07-01T05:01:44;23.80;49.90
16901;DHT22;8567;52.540;6.434;2022-07-01T05:04:12;23.80;50.00
16901;DHT22;8567;52.540;6.434;2022-07-01T05:06:39;23.70;50.10
16901;DHT22;8567;52.540;6.434;2022-07-01T05:09:06;23.80;50.10
16901;DHT22;8567;52.540;6.434;2022-07-01T05:11:33;23.70;50.20
16901;DHT22;8567;52.540;6.434;2022-07-01T05:14:00;23.70;50.10
16901;DHT22;8567;52.540;6.434;2022-07-01T05:16:27;23.70;50.10
16901;DHT22;8567;52.540;6.434;2022-07-01T05:18:55;23.70;50.10
16901;DHT22;8567;52.540;6.434;2022-07-01T05:21:40;23.70;50.10
16901;DHT22;8567;52.540;6.434;2022-07-01T05:24:27;23.80;49.90
16901;DHT22;8567;52.540;6.434;2022-07-01T05:26:56;23.70;50.10
16901;DHT22;8567;52.540;6.434;2022-07-01T05:29:22;23.80;50.10
16901;DHT22;8567;52.540;6.434;2022-07-01T05:31:49;23.80;50.00
16901;DHT22;8567;52.540;6.434;2022-07-01T05:34:17;23.70;49.90
16901;DHT22;8567;52.540;6.434;2022-07-01T05:36:44;23.30;50.40
16901;DHT22;8567;52.540;6.434;2022-07-01T05:39:11;23.10;51.10
16901;DHT22;8567;52.540;6.434;2022-07-01T05:41:38;22.80;51.60
16901;DHT22;8567;52.540;6.434;2022-07-01T05:44:05;22.70;51.90
16901;DHT22;8567;52.540;6.434;2022-07-01T05:46:32;22.70;51.90
16901;DHT22;8567;52.540;6.434;2022-07-01T05:48:59;22.60;52.10
16901;DHT22;8567;52.540;6.434;2022-07-01T05:51:27;22.50;52.20
16901;DHT22;8567;52.540;6.434;2022-07-01T05:53:54;22.50;52.50
16901;DHT22;8567;52.540;6.434;2022-07-01T05:56:21;22.40;52.50
16901;DHT22;8567;52.540;6.434;2022-07-01T05:58:48;22.30;52.60
16901;DHT22;8567;52.540;6.434;2022-07-01T06:01:15;22.20;52.90
16901;DHT22;8567;52.540;6.434;2022-07-01T06:03:42;22.10;53.10
16901;DHT22;8567;52.540;6.434;2022-07-01T06:06:08;22.00;53.10
16901;DHT22;8567;52.540;6.434;2022-07-01T06:08:37;22.20;53.10
16901;DHT22;8567;52.540;6.434;2022-07-01T06:11:04;22.50;52.40
16901;DHT22;8567;52.540;6.434;2022-07-01T06:13:31;22.90;51.70
16901;DHT22;8567;52.540;6.434;2022-07-01T06:15:58;23.10;51.30
16901;DHT22;8567;52.540;6.434;2022-07-01T06:18:25;23.30;51.00
16901;DHT22;8567;52.540;6.434;2022-07-01T06:20:52;23.40;50.90
16901;DHT22;8567;52.540;6.434;2022-07-01T06:23:18;23.50;50.70
16901;DHT22;8567;52.540;6.434;2022-07-01T06:25:47;23.50;50.60
16901;DHT22;8567;52.540;6.434;2022-07-01T06:28:13;23.60;50.60
16901;DHT22;8567;52.540;6.434;2022-07-01T06:30:40;23.70;50.60
16901;DHT22;8567;52.540;6.434;2022-07-01T06:33:09;23.70;50.70
16901;DHT22;8567;52.540;6.434;2022-07-01T06:35:37;23.70;50.80
16901;DHT22;8567;52.540;6.434;2022-07-01T06:38:03;23.70;50.80
16901;DHT22;8567;52.540;6.434;2022-07-01T06:40:30;23.70;50.90
16901;DHT22;8567;52.540;6.434;2022-07-01T06:42:58;23.80;50.90
16901;DHT22;8567;52.540;6.434;2022-07-01T06:45:25;23.80;50.90
16901;DHT22;8567;52.540;6.434;2022-07-01T06:47:52;23.90;50.80
16901;DHT22;8567;52.540;6.434;2022-07-01T06:50:19;24.00;51.40
16901;DHT22;8567;52.540;6.434;2022-07-01T06:52:45;24.10;50.70
16901;DHT22;8567;52.540;6.434;2022-07-01T06:55:12;24.20;50.50
16901;DHT22;8567;52.540;6.434;2022-07-01T06:57:39;24.40;51.20
16901;DHT22;8567;52.540;6.434;2022-07-01T07:00:11;24.40;50.20
16901;DHT22;8567;52.540;6.434;2022-07-01T07:02:38;24.40;51.60
16901;DHT22;8567;52.540;6.434;2022-07-01T07:05:07;24.50;50.40
16901;DHT22;8567;52.540;6.434;2022-07-01T07:07:34;24.50;51.90
16901;DHT22;8567;52.540;6.434;2022-07-01T07:10:01;24.50;50.80
16901;DHT22;8567;52.540;6.434;2022-07-01T07:12:28;24.60;50.80
16901;DHT22;8567;52.540;6.434;2022-07-01T07:14:54;24.60;50.40
16901;DHT22;8567;52.540;6.434;2022-07-01T07:17:22;24.50;50.40
16901;DHT22;8567;52.540;6.434;2022-07-01T07:19:49;24.50;50.90
16901;DHT22;8567;52.540;6.434;2022-07-01T07:22:16;24.60;52.70
16901;DHT22;8567;52.540;6.434;2022-07-01T07:24:42;24.70;50.80
16901;DHT22;8567;52.540;6.434;2022-07-01T07:27:09;24.70;51.90
16901;DHT22;8567;52.540;6.434;2022-07-01T07:29:38;24.80;50.90
16901;DHT22;8567;52.540;6.434;2022-07-01T07:32:06;24.80;51.50
16901;DHT22;8567;52.540;6.434;2022-07-01T07:34:34;24.80;51.10
16901;DHT22;8567;52.540;6.434;2022-07-01T07:37:03;24.80;51.00
16901;DHT22;8567;52.540;6.434;2022-07-01T07:39:30;24.90;51.20
16901;DHT22;8567;52.540;6.434;2022-07-01T07:41:56;24.90;51.00
16901;DHT22;8567;52.540;6.434;2022-07-01T07:44:23;25.00;51.00
16901;DHT22;8567;52.540;6.434;2022-07-01T07:46:50;25.00;51.30
16901;DHT22;8567;52.540;6.434;2022-07-01T07:49:17;25.10;51.10
16901;DHT22;8567;52.540;6.434;2022-07-01T07:51:45;25.20;50.60
16901;DHT22;8567;52.540;6.434;2022-07-01T07:54:11;25.20;50.40
16901;DHT22;8567;52.540;6.434;2022-07-01T07:56:38;25.20;50.90
16901;DHT22;8567;52.540;6.434;2022-07-01T07:59:05;25.30;51.20
16901;DHT22;8567;52.540;6.434;2022-07-01T08:01:32;25.30;50.60
16901;DHT22;8567;52.540;6.434;2022-07-01T08:03:59;25.40;50.40
16901;DHT22;8567;52.540;6.434;2022-07-01T08:06:26;25.40;50.70
16901;DHT22;8567;52.540;6.434;2022-07-01T08:08:56;25.40;50.30
16901;DHT22;8567;52.540;6.434;2022-07-01T08:11:22;25.50;50.20
16901;DHT22;8567;52.540;6.434;2022-07-01T08:13:49;25.50;50.20
16901;DHT22;8567;52.540;6.434;2022-07-01T08:16:16;25.50;50.20
16901;DHT22;8567;52.540;6.434;2022-07-01T08:18:42;25.50;50.20
16901;DHT22;8567;52.540;6.434;2022-07-01T08:21:09;25.50;50.00
16901;DHT22;8567;52.540;6.434;2022-07-01T08:23:36;25.50;50.00
16901;DHT22;8567;52.540;6.434;2022-07-01T08:26:04;25.50;50.10
16901;DHT22;8567;52.540;6.434;2022-07-01T08:28:31;25.60;50.00
16901;DHT22;8567;52.540;6.434;2022-07-01T08:30:58;25.60;49.90
16901;DHT22;8567;52.540;6.434;2022-07-01T08:33:25;25.60;49.90
16901;DHT22;8567;52.540;6.434;2022-07-01T08:35:51;25.60;50.00
16901;DHT22;8567;52.540;6.434;2022-07-01T08:38:18;25.60;50.00
16901;DHT22;8567;52.540;6.434;2022-07-01T08:40:45;25.60;49.90
16901;DHT22;8567;52.540;6.434;2022-07-01T08:43:13;25.70;50.60
16901;DHT22;8567;52.540;6.434;2022-07-01T08:45:40;25.70;50.10
16901;DHT22;8567;52.540;6.434;2022-07-01T08:48:07;25.80;50.00
16901;DHT22;8567;52.540;6.434;2022-07-01T08:50:36;25.80;50.00
16901;DHT22;8567;52.540;6.434;2022-07-01T08:53:04;25.90;50.00
16901;DHT22;8567;52.540;6.434;2022-07-01T08:55:31;25.90;50.00
16901;DHT22;8567;52.540;6.434;2022-07-01T08:58:19;26.00;50.00
16901;DHT22;8567;52.540;6.434;2022-07-01T09:00:46;26.00;50.00
16901;DHT22;8567;52.540;6.434;2022-07-01T09:03:13;26.00;50.30
16901;DHT22;8567;52.540;6.434;2022-07-01T09:05:48;26.00;50.20
16901;DHT22;8567;52.540;6.434;2022-07-01T09:08:15;26.00;50.50
16901;DHT22;8567;52.540;6.434;2022-07-01T09:10:42;26.00;50.50
16901;DHT22;8567;52.540;6.434;2022-07-01T09:13:11;26.00;50.50
16901;DHT22;8567;52.540;6.434;2022-07-01T09:15:40;26.10;50.40
16901;DHT22;8567;52.540;6.434;2022-07-01T09:18:10;26.00;50.60
16901;DHT22;8567;52.540;6.434;2022-07-01T09:20:41;26.10;51.10
16901;DHT22;8567;52.540;6.434;2022-07-01T09:23:09;26.10;50.50
16901;DHT22;8567;52.540;6.434;2022-07-01T09:25:39;26.10;50.60
16901;DHT22;8567;52.540;6.434;2022-07-01T09:28:10;26.10;50.70
16901;DHT22;8567;52.540;6.434;2022-07-01T09:30:41;26.10;50.90
16901;DHT22;8567;52.540;6.434;2022-07-01T09:33:10;26.10;50.80
16901;DHT22;8567;52.540;6.434;2022-07-01T09:35:38;26.00;50.90
16901;DHT22;8567;52.540;6.434;2022-07-01T09:38:06;26.00;50.90
16901;DHT22;8567;52.540;6.434;2022-07-01T09:40:51;26.00;50.90
16901;DHT22;8567;52.540;6.434;2022-07-01T09:43:19;26.10;50.80
16901;DHT22;8567;52.540;6.434;2022-07-01T09:45:52;26.10;50.70
16901;DHT22;8567;52.540;6.434;2022-07-01T09:48:19;26.20;50.50
16901;DHT22;8567;52.540;6.434;2022-07-01T09:50:46;26.20;50.50
16901;DHT22;8567;52.540;6.434;2022-07-01T09:53:13;26.20;50.50
16901;DHT22;8567;52.540;6.434;2022-07-01T09:55:41;26.30;50.40
16901;DHT22;8567;52.540;6.434;2022-07-01T09:58:08;26.30;50.80
16901;DHT22;8567;52.540;6.434;2022-07-01T10:00:36;26.30;50.40
16901;DHT22;8567;52.540;6.434;2022-07-01T10:03:06;26.30;50.30
16901;DHT22;8567;52.540;6.434;2022-07-01T10:05:47;26.10;50.70
16901;DHT22;8567;52.540;6.434;2022-07-01T10:08:42;26.10;50.30
16901;DHT22;8567;52.540;6.434;2022-07-01T10:11:33;26.20;49.80
16901;DHT22;8567;52.540;6.434;2022-07-01T10:14:04;26.20;49.80
16901;DHT22;8567;52.540;6.434;2022-07-01T10:16:32;26.30;49.90
16901;DHT22;8567;52.540;6.434;2022-07-01T10:19:06;26.30;50.00
16901;DHT22;8567;52.540;6.434;2022-07-01T10:21:51;26.30;50.10
16901;DHT22;8567;52.540;6.434;2022-07-01T10:24:20;26.20;49.70
16901;DHT22;8567;52.540;6.434;2022-07-01T10:26:47;25.80;47.50
16901;DHT22;8567;52.540;6.434;2022-07-01T10:29:30;25.30;47.10
16901;DHT22;8567;52.540;6.434;2022-07-01T10:32:02;25.00;46.10
16901;DHT22;8567;52.540;6.434;2022-07-01T10:34:36;24.90;46.90
16901;DHT22;8567;52.540;6.434;2022-07-01T10:37:05;24.90;46.40
16901;DHT22;8567;52.540;6.434;2022-07-01T10:39:55;24.80;46.10
16901;DHT22;8567;52.540;6.434;2022-07-01T10:42:28;24.70;46.20
16901;DHT22;8567;52.540;6.434;2022-07-01T10:45:17;24.80;45.90
16901;DHT22;8567;52.540;6.434;2022-07-01T10:47:43;24.80;45.90
16901;DHT22;8567;52.540;6.434;2022-07-01T10:50:13;24.70;46.20
16901;DHT22;8567;52.540;6.434;2022-07-01T10:52:59;24.80;45.90
16901;DHT22;8567;52.540;6.434;2022-07-01T10:55:37;24.80;45.20
16901;DHT22;8567;52.540;6.434;2022-07-01T10:58:03;24.80;45.10
16901;DHT22;8567;52.540;6.434;2022-07-01T11:00:33;24.90;45.00
16901;DHT22;8567;52.540;6.434;2022-07-01T11:03:18;24.80;44.80
16901;DHT22;8567;52.540;6.434;2022-07-01T11:05:49;24.80;44.80
16901;DHT22;8567;52.540;6.434;2022-07-01T11:08:16;24.70;44.70
16901;DHT22;8567;52.540;6.434;2022-07-01T11:10:43;24.70;44.40
16901;DHT22;8567;52.540;6.434;2022-07-01T11:13:13;24.70;44.30
16901;DHT22;8567;52.540;6.434;2022-07-01T11:15:42;24.70;44.20
16901;DHT22;8567;52.540;6.434;2022-07-01T11:18:11;24.70;43.80
16901;DHT22;8567;52.540;6.434;2022-07-01T11:20:38;24.60;44.10
16901;DHT22;8567;52.540;6.434;2022-07-01T11:23:06;24.60;44.10
16901;DHT22;8567;52.540;6.434;2022-07-01T11:25:34;24.60;43.90
16901;DHT22;8567;52.540;6.434;2022-07-01T11:28:01;24.70;44.30
16901;DHT22;8567;52.540;6.434;2022-07-01T11:30:28;24.60;43.90
16901;DHT22;8567;52.540;6.434;2022-07-01T11:32:57;24.60;43.80
16901;DHT22;8567;52.540;6.434;2022-07-01T11:35:25;24.50;43.70
16901;DHT22;8567;52.540;6.434;2022-07-01T11:38:13;24.40;43.80
16901;DHT22;8567;52.540;6.434;2022-07-01T11:40:59;24.30;43.60
16901;DHT22;8567;52.540;6.434;2022-07-01T11:43:28;24.40;43.80
16901;DHT22;8567;52.540;6.434;2022-07-01T11:45:57;24.40;43.50
16901;DHT22;8567;52.540;6.434;2022-07-01T11:48:33;24.50;43.60
16901;DHT22;8567;52.540;6.434;2022-07-01T11:51:06;24.50;43.50
16901;DHT22;8567;52.540;6.434;2022-07-01T11:53:34;24.60;43.60
16901;DHT22;8567;52.540;6.434;2022-07-01T11:56:02;24.60;43.70
16901;DHT22;8567;52.540;6.434;2022-07-01T11:58:42;24.60;43.50
16901;DHT22;8567;52.540;6.434;2022-07-01T12:01:09;24.60;44.00
16901;DHT22;8567;52.540;6.434;2022-07-01T12:03:36;24.70;43.90
16901;DHT22;8567;52.540;6.434;2022-07-01T12:06:04;24.80;44.00
16901;DHT22;8567;52.540;6.434;2022-07-01T12:08:31;24.80;44.00
16901;DHT22;8567;52.540;6.434;2022-07-01T12:10:59;24.90;44.00
16901;DHT22;8567;52.540;6.434;2022-07-01T12:13:26;24.90;43.90
16901;DHT22;8567;52.540;6.434;2022-07-01T12:15:53;24.80;43.80
16901;DHT22;8567;52.540;6.434;2022-07-01T12:18:20;24.80;43.70
16901;DHT22;8567;52.540;6.434;2022-07-01T12:20:49;24.70;43.80
16901;DHT22;8567;52.540;6.434;2022-07-01T12:23:16;24.70;43.80
16901;DHT22;8567;52.540;6.434;2022-07-01T12:25:50;24.70;43.80
16901;DHT22;8567;52.540;6.434;2022-07-01T12:28:30;24.70;43.80
16901;DHT22;8567;52.540;6.434;2022-07-01T12:31:02;24.80;43.40
16901;DHT22;8567;52.540;6.434;2022-07-01T12:33:29;24.80;43.30
16901;DHT22;8567;52.540;6.434;2022-07-01T12:35:56;24.60;43.20
16901;DHT22;8567;52.540;6.434;2022-07-01T12:38:23;24.60;43.20
16901;DHT22;8567;52.540;6.434;2022-07-01T12:40:50;24.70;43.40
16901;DHT22;8567;52.540;6.434;2022-07-01T12:43:27;24.90;43.30
16901;DHT22;8567;52.540;6.434;2022-07-01T12:46:01;25.00;43.00
16901;DHT22;8567;52.540;6.434;2022-07-01T12:48:28;25.00;43.20
16901;DHT22;8567;52.540;6.434;2022-07-01T12:50:57;25.10;43.30
16901;DHT22;8567;52.540;6.434;2022-07-01T12:53:25;25.20;43.20
16901;DHT22;8567;52.540;6.434;2022-07-01T12:55:56;25.30;43.20
16901;DHT22;8567;52.540;6.434;2022-07-01T12:58:25;25.30;43.30
16901;DHT22;8567;52.540;6.434;2022-07-01T13:00:54;25.30;43.30
16901;DHT22;8567;52.540;6.434;2022-07-01T13:03:24;25.30;43.40
16901;DHT22;8567;52.540;6.434;2022-07-01T13:05:52;25.30;43.40
16901;DHT22;8567;52.540;6.434;2022-07-01T13:08:20;25.30;43.50
16901;DHT22;8567;52.540;6.434;2022-07-01T13:10:47;25.30;43.50
16901;DHT22;8567;52.540;6.434;2022-07-01T13:13:15;25.40;43.60
16901;DHT22;8567;52.540;6.434;2022-07-01T13:15:43;25.40;43.70
16901;DHT22;8567;52.540;6.434;2022-07-01T13:18:11;25.50;43.70
16901;DHT22;8567;52.540;6.434;2022-07-01T13:20:41;25.50;43.80
16901;DHT22;8567;52.540;6.434;2022-07-01T13:23:08;25.50;43.90
16901;DHT22;8567;52.540;6.434;2022-07-01T13:25:35;25.40;44.00
16901;DHT22;8567;52.540;6.434;2022-07-01T13:28:03;25.50;44.10
16901;DHT22;8567;52.540;6.434;2022-07-01T13:30:30;25.40;44.30
16901;DHT22;8567;52.540;6.434;2022-07-01T13:32:56;25.50;44.30
16901;DHT22;8567;52.540;6.434;2022-07-01T13:35:23;25.40;44.40
16901;DHT22;8567;52.540;6.434;2022-07-01T13:37:52;25.50;44.40
16901;DHT22;8567;52.540;6.434;2022-07-01T13:40:18;25.50;44.50
16901;DHT22;8567;52.540;6.434;2022-07-01T13:42:47;25.50;44.50
16901;DHT22;8567;52.540;6.434;2022-07-01T13:45:13;25.50;44.60
16901;DHT22;8567;52.540;6.434;2022-07-01T13:47:40;25.50;44.60
16901;DHT22;8567;52.540;6.434;2022-07-01T13:50:09;25.60;44.60
16901;DHT22;8567;52.540;6.434;2022-07-01T13:52:38;25.60;44.60
16901;DHT22;8567;52.540;6.434;2022-07-01T13:55:07;25.60;44.60
16901;DHT22;8567;52.540;6.434;2022-07-01T13:57:34;25.70;44.50
16901;DHT22;8567;52.540;6.434;2022-07-01T14:00:01;25.70;44.60
16901;DHT22;8567;52.540;6.434;2022-07-01T14:02:28;25.70;44.70
16901;DHT22;8567;52.540;6.434;2022-07-01T14:04:54;25.70;44.70
16901;DHT22;8567;52.540;6.434;2022-07-01T14:07:21;25.70;44.70
16901;DHT22;8567;52.540;6.434;2022-07-01T14:09:48;25.70;44.80
16901;DHT22;8567;52.540;6.434;2022-07-01T14:12:16;25.70;44.80
16901;DHT22;8567;52.540;6.434;2022-07-01T14:14:43;25.70;44.60
16901;DHT22;8567;52.540;6.434;2022-07-01T14:17:10;25.70;44.70
16901;DHT22;8567;52.540;6.434;2022-07-01T14:19:36;25.70;44.80
16901;DHT22;8567;52.540;6.434;2022-07-01T14:22:03;25.70;44.90
16901;DHT22;8567;52.540;6.434;2022-07-01T14:24:30;25.80;44.90
16901;DHT22;8567;52.540;6.434;2022-07-01T14:26:57;25.80;44.90
16901;DHT22;8567;52.540;6.434;2022-07-01T14:29:26;25.80;44.90
16901;DHT22;8567;52.540;6.434;2022-07-01T14:31:53;25.80;45.00
16901;DHT22;8567;52.540;6.434;2022-07-01T14:34:20;25.80;45.10
16901;DHT22;8567;52.540;6.434;2022-07-01T14:36:47;25.70;45.10
16901;DHT22;8567;52.540;6.434;2022-07-01T14:39:14;25.70;45.10
16901;DHT22;8567;52.540;6.434;2022-07-01T14:41:41;25.80;45.20
16901;DHT22;8567;52.540;6.434;2022-07-01T14:44:08;25.80;45.20
16901;DHT22;8567;52.540;6.434;2022-07-01T14:46:36;25.70;45.20
16901;DHT22;8567;52.540;6.434;2022-07-01T14:49:03;25.80;45.20
16901;DHT22;8567;52.540;6.434;2022-07-01T14:51:29;25.80;45.10
16901;DHT22;8567;52.540;6.434;2022-07-01T14:53:56;25.90;44.90
16901;DHT22;8567;52.540;6.434;2022-07-01T14:56:23;25.90;44.70
16901;DHT22;8567;52.540;6.434;2022-07-01T14:58:50;25.90;44.40
16901;DHT22;8567;52.540;6.434;2022-07-01T15:01:17;25.80;44.70
16901;DHT22;8567;52.540;6.434;2022-07-01T15:03:45;25.80;44.50
16901;DHT22;8567;52.540;6.434;2022-07-01T15:06:12;25.80;44.90
16901;DHT22;8567;52.540;6.434;2022-07-01T15:08:38;25.80;45.00
16901;DHT22;8567;52.540;6.434;2022-07-01T15:11:06;25.80;45.20
16901;DHT22;8567;52.540;6.434;2022-07-01T15:13:33;25.80;45.20
16901;DHT22;8567;52.540;6.434;2022-07-01T15:16:03;25.80;45.20
16901;DHT22;8567;52.540;6.434;2022-07-01T15:18:30;25.80;45.30
16901;DHT22;8567;52.540;6.434;2022-07-01T15:21:00;25.70;45.20
16901;DHT22;8567;52.540;6.434;2022-07-01T15:23:27;25.70;45.20
16901;DHT22;8567;52.540;6.434;2022-07-01T15:25:54;25.60;44.50
16901;DHT22;8567;52.540;6.434;2022-07-01T15:28:21;25.30;43.40
16901;DHT22;8567;52.540;6.434;2022-07-01T15:30:49;25.00;43.20
16901;DHT22;8567;52.540;6.434;2022-07-01T15:33:18;24.80;42.80
16901;DHT22;8567;52.540;6.434;2022-07-01T15:35:45;24.80;42.90
16901;DHT22;8567;52.540;6.434;2022-07-01T15:38:13;24.80;43.20
16901;DHT22;8567;52.540;6.434;2022-07-01T15:40:40;24.90;42.80
16901;DHT22;8567;52.540;6.434;2022-07-01T15:43:07;24.90;42.80
16901;DHT22;8567;52.540;6.434;2022-07-01T15:45:34;25.00;42.30
16901;DHT22;8567;52.540;6.434;2022-07-01T15:48:02;25.10;42.20
16901;DHT22;8567;52.540;6.434;2022-07-01T15:50:32;25.10;41.50
16901;DHT22;8567;52.540;6.434;2022-07-01T15:52:59;25.20;41.10